sensor_id;sensor_type;location;lat;lon;timestamp;temperature;humidity
63960;DHT22;50136;51.374;0.096;2022-10-18T00:09:04;9.80;99.90
63960;DHT22;50136;51.374;0.096;2022-10-18T00:19:08;9.70;99.90
63960;DHT22;50136;51.374;0.096;2022-10-18T00:29:13;9.50;99.90
63960;DHT22;50136;51.374;0.096;2022-10-18T00:39:18;9.40;99.90
63960;DHT22;50136;51.374;0.096;2022-10-18T00:49:24;9.40;99.90
63960;DHT22;50136;51.374;0.096;2022-10-18T00:59:29;9.30;99.90
63960;DHT22;50136;51.374;0.096;2022-10-18T01:09:36;9.20;99.90
63960;DHT22;50136;51.374;0.096;2022-10-18T01:20:02;9.20;99.90
63960;DHT22;50136;51.374;0.096;2022-10-18T01:30:35;9.10;99.90
63960;DHT22;50136;51.374;0.096;2022-10-18T01:40:38;8.90;99.90
63960;DHT22;50136;51.374;0.096;2022-10-18T01:50:43;8.80;99.90
63960;DHT22;50136;51.374;0.096;2022-10-18T02:00:48;8.70;99.90
63960;DHT22;50136;51.374;0.096;2022-10-18T02:10:55;8.80;99.90
63960;DHT22;50136;51.374;0.096;2022-10-18T02:21:00;8.70;99.90
63960;DHT22;50136;51.374;0.096;2022-10-18T02:31:11;8.50;99.90
63960;DHT22;50136;51.374;0.096;2022-10-18T02:41:21;8.50;99.90
63960;DHT22;50136;51.374;0.096;2022-10-18T02:51:25;8.50;99.90
63960;DHT22;50136;51.374;0.096;2022-10-18T03:01:27;8.30;99.90
63960;DHT22;50136;51.374;0.096;2022-10-18T03:11:31;8.20;99.90
63960;DHT22;50136;51.374;0.096;2022-10-18T03:21:33;8.20;99.90
63960;DHT22;50136;51.374;0.096;2022-10-18T03:31:36;8.10;99.90
63960;DHT22;50136;51.374;0.096;2022-10-18T03:41:38;8.10;99.90
63960;DHT22;50136;51.374;0.096;2022-10-18T03:51:41;8.00;99.90
63960;DHT22;50136;51.374;0.096;2022-10-18T04:01:43;8.00;99.90
63960;DHT22;50136;51.374;0.096;2022-10-18T04:11:48;7.80;99.90
63960;DHT22;50136;51.374;0.096;2022-10-18T04:21:50;7.80;99.90
63960;DHT22;50136;51.374;0.096;2022-10-18T04:31:54;7.80;99.90
63960;DHT22;50136;51.374;0.096;2022-10-18T04:41:55;7.70;99.90
63960;DHT22;50136;51.374;0.096;2022-10-18T04:51:59;7.40;99.90
63960;DHT22;50136;51.374;0.096;2022-10-18T05:02:01;7.40;99.90
63960;DHT22;50136;51.374;0.096;2022-10-18T05:12:05;7.40;99.90
63960;DHT22;50136;51.374;0.096;2022-10-18T05:22:07;7.30;99.90
63960;DHT22;50136;51.374;0.096;2022-10-18T05:32:10;7.40;99.90
63960;DHT22;50136;51.374;0.096;2022-10-18T05:42:12;7.30;99.90
63960;DHT22;50136;51.374;0.096;2022-10-18T05:52:16;7.10;99.90
63960;DHT22;50136;51.374;0.096;2022-10-18T06:02:17;7.00;99.90
63960;DHT22;50136;51.374;0.096;2022-10-18T06:12:21;7.00;99.90
63960;DHT22;50136;51.374;0.096;2022-10-18T06:22:23;7.00;99.90
63960;DHT22;50136;51.374;0.096;2022-10-18T06:32:26;6.90;99.90
63960;DHT22;50136;51.374;0.096;2022-10-18T06:42:28;6.90;99.90
63960;DHT22;50136;51.374;0.096;2022-10-18T06:52:32;7.00;99.90
63960;DHT22;50136;51.374;0.096;2022-10-18T07:02:34;7.00;99.90
63960;DHT22;50136;51.374;0.096;2022-10-18T07:12:37;7.10;99.90
63960;DHT22;50136;51.374;0.096;2022-10-18T07:22:39;7.20;99.90
63960;DHT22;50136;51.374;0.096;2022-10-18T07:32:43;7.40;99.90
63960;DHT22;50136;51.374;0.096;2022-10-18T07:42:45;7.70;99.90
63960;DHT22;50136;51.374;0.096;2022-10-18T07:52:48;8.10;99.90
63960;DHT22;50136;51.374;0.096;2022-10-18T08:02:54;8.40;99.90
63960;DHT22;50136;51.374;0.096;2022-10-18T08:12:58;8.70;99.90
63960;DHT22;50136;51.374;0.096;2022-10-18T08:23:00;9.10;99.90
63960;DHT22;50136;51.374;0.096;2022-10-18T08:33:03;9.60;99.90
63960;DHT22;50136;51.374;0.096;2022-10-18T08:43:09;10.10;99.90
63960;DHT22;50136;51.374;0.096;2022-10-18T08:53:27;10.70;99.90
63960;DHT22;50136;51.374;0.096;2022-10-18T11:40:38;16.50;99.90
63960;DHT22;50136;51.374;0.096;2022-10-18T11:50:48;16.40;99.90
63960;DHT22;50136;51.374;0.096;2022-10-18T12:00:58;16.40;99.90
63960;DHT22;50136;51.374;0.096;2022-10-18T12:11:07;16.30;99.90
63960;DHT22;50136;51.374;0.096;2022-10-18T12:21:12;16.40;99.90
63960;DHT22;50136;51.374;0.096;2022-10-18T12:31:20;16.40;99.90
63960;DHT22;50136;51.374;0.096;2022-10-18T12:41:26;16.50;99.90
63960;DHT22;50136;51.374;0.096;2022-10-18T12:51:29;16.50;99.90
63960;DHT22;50136;51.374;0.096;2022-10-18T13:12:47;16.40;99.90
63960;DHT22;50136;51.374;0.096;2022-10-18T13:23:00;16.50;99.90
63960;DHT22;50136;51.374;0.096;2022-10-18T13:33:33;16.50;99.90
63960;DHT22;50136;51.374;0.096;2022-10-18T13:54:42;16.50;99.90
63960;DHT22;50136;51.374;0.096;2022-10-18T14:15:31;16.50;99.90
63960;DHT22;50136;51.374;0.096;2022-10-18T14:25:36;16.60;99.90
63960;DHT22;50136;51.374;0.096;2022-10-18T14:35:40;16.50;99.90
63960;DHT22;50136;51.374;0.096;2022-10-18T14:45:42;16.70;99.90
63960;DHT22;50136;51.374;0.096;2022-10-18T14:55:53;16.80;99.90
63960;DHT22;50136;51.374;0.096;2022-10-18T15:05:58;17.00;99.90
63960;DHT22;50136;51.374;0.096;2022-10-18T15:16:01;17.10;99.90
63960;DHT22;50136;51.374;0.096;2022-10-18T15:26:05;17.00;99.90
63960;DHT22;50136;51.374;0.096;2022-10-18T15:36:16;16.70;99.90
63960;DHT22;50136;51.374;0.096;2022-10-18T15:46:29;16.50;99.90
63960;DHT22;50136;51.374;0.096;2022-10-18T15:56:34;16.00;99.90
63960;DHT22;50136;51.374;0.096;2022-10-18T16:06:36;15.80;99.90
63960;DHT22;50136;51.374;0.096;2022-10-18T16:16:40;15.50;99.90
63960;DHT22;50136;51.374;0.096;2022-10-18T16:26:42;15.30;99.90
63960;DHT22;50136;51.374;0.096;2022-10-18T16:36:45;15.10;99.90
63960;DHT22;50136;51.374;0.096;2022-10-18T16:46:47;14.80;99.90
63960;DHT22;50136;51.374;0.096;2022-10-18T16:56:56;14.60;99.90
63960;DHT22;50136;51.374;0.096;2022-10-18T17:06:57;14.40;99.90
63960;DHT22;50136;51.374;0.096;2022-10-18T17:17:01;14.10;99.90
63960;DHT22;50136;51.374;0.096;2022-10-18T17:27:03;14.00;99.90
63960;DHT22;50136;51.374;0.096;2022-10-18T17:37:06;13.80;99.90
63960;DHT22;50136;51.374;0.096;2022-10-18T17:47:09;13.70;99.90
63960;DHT22;50136;51.374;0.096;2022-10-18T17:57:12;13.40;99.90
63960;DHT22;50136;51.374;0.096;2022-10-18T18:07:14;13.30;99.90
63960;DHT22;50136;51.374;0.096;2022-10-18T18:17:17;13.10;99.90
63960;DHT22;50136;51.374;0.096;2022-10-18T18:38:41;13.10;99.90
63960;DHT22;50136;51.374;0.096;2022-10-18T18:48:43;13.20;99.90
63960;DHT22;50136;51.374;0.096;2022-10-18T18:58:52;13.10;99.90
63960;DHT22;50136;51.374;0.096;2022-10-18T19:08:55;12.90;99.90
63960;DHT22;50136;51.374;0.096;2022-10-18T19:19:00;12.80;99.90
63960;DHT22;50136;51.374;0.096;2022-10-18T19:29:05;12.70;99.90
63960;DHT22;50136;51.374;0.096;2022-10-18T19:39:16;12.70;99.90
63960;DHT22;50136;51.374;0.096;2022-10-18T19:49:18;12.70;99.90
63960;DHT22;50136;51.374;0.096;2022-10-18T19:59:22;12.70;99.90
63960;DHT22;50136;51.374;0.096;2022-10-18T20:09:24;12.70;99.90
63960;DHT22;50136;51.374;0.096;2022-10-18T20:19:28;12.70;99.90
63960;DHT22;50136;51.374;0.096;2022-10-18T20:29:30;12.60;99.90
63960;DHT22;50136;51.374;0.096;2022-10-18T20:39:33;12.70;99.90
63960;DHT22;50136;51.374;0.096;2022-10-18T20:49:35;12.60;99.90
63960;DHT22;50136;51.374;0.096;2022-10-18T20:59:38;12.60;99.90
63960;DHT22;50136;51.374;0.096;2022-10-18T21:09:40;12.50;99.90
63960;DHT22;50136;51.374;0.096;2022-10-18T21:19:44;12.50;99.90
63960;DHT22;50136;51.374;0.096;2022-10-18T21:29:47;12.50;99.90
63960;DHT22;50136;51.374;0.096;2022-10-18T21:39:50;12.60;99.90
63960;DHT22;50136;51.374;0.096;2022-10-18T21:49:52;12.70;99.90
63960;DHT22;50136;51.374;0.096;2022-10-18T21:59:55;12.70;99.90
63960;DHT22;50136;51.374;0.096;2022-10-18T22:09:57;12.70;99.90
63960;DHT22;50136;51.374;0.096;2022-10-18T22:20:01;12.80;99.90
63960;DHT22;50136;51.374;0.096;2022-10-18T22:30:03;12.70;99.90
63960;DHT22;50136;51.374;0.096;2022-10-18T22:40:10;12.70;99.90
63960;DHT22;50136;51.374;0.096;2022-10-18T22:50:12;12.60;99.90
63960;DHT22;50136;51.374;0.096;2022-10-18T23:00:16;12.60;99.90
63960;DHT22;50136;51.374;0.096;2022-10-18T23:10:18;12.50;99.90
63960;DHT22;50136;51.374;0.096;2022-10-18T23:20:21;12.50;99.90
63960;DHT22;50136;51.374;0.096;2022-10-18T23:30:23;12.50;99.90
63960;DHT22;50136;51.374;0.096;2022-10-18T23:40:26;12.50;99.90
63960;DHT22;50136;51.374;0.096;2022-10-18T23:50:28;12.50;99.90
